Time;durP1;ratioP1;P1;durP2;ratioP2;P2;SDS_P1;SDS_P2;PMS_P1;PMS_P2;Temp;Humidity;BMP_temperature;BMP_pressure;BME280_temperature;BME280_humidity;BME280_pressure;Samples;Min_cycle;Max_cycle;Signal;HPM_P1;HPM_P2
2022/11/13 00:00:50;;;;;;;1.75;1.52;;;;;;;8.81;90.80;96010.78;5106757;28;20198;-78
2022/11/13 00:03:17;;;;;;;2.75;1.77;;;;;;;8.84;91.10;96009.41;5087902;28;20283;-79
2022/11/13 00:05:44;;;;;;;3.35;1.88;;;;;;;8.85;90.88;96011.03;5087524;28;20234;-76
2022/11/13 00:08:11;;;;;;;3.33;1.58;;;;;;;8.83;91.30;96014.03;5087750;28;20210;-78
2022/11/13 00:10:37;;;;;;;2.70;1.75;;;;;;;8.86;91.37;96007.25;5087853;28;20259;-77
2022/11/13 00:13:04;;;;;;;3.72;2.13;;;;;;;8.84;91.47;96004.00;5088046;28;20206;-76
2022/11/13 00:15:31;;;;;;;2.15;1.92;;;;;;;8.86;91.31;96001.84;5102300;28;20210;-77
2022/11/13 00:18:02;;;;;;;2.72;1.30;;;;;;;8.85;91.47;96000.22;5107699;28;20205;-78
2022/11/13 00:20:29;;;;;;;2.75;1.90;;;;;;;8.83;91.53;96007.81;5108261;28;20217;-79
2022/11/13 00:22:56;;;;;;;3.25;2.05;;;;;;;8.82;91.46;96006.19;5100163;28;20619;-79
2022/11/13 00:25:23;;;;;;;2.47;1.90;;;;;;;8.83;91.65;95997.00;5087689;28;20797;-78
2022/11/13 00:27:49;;;;;;;3.92;2.15;;;;;;;8.85;91.75;95997.53;5087281;28;20209;-78
2022/11/13 00:30:16;;;;;;;3.28;1.63;;;;;;;8.83;91.74;95991.59;5103560;28;20206;-80
2022/11/13 00:32:43;;;;;;;4.07;2.35;;;;;;;8.77;92.05;95998.13;5107600;28;20365;-78
2022/11/13 00:35:11;;;;;;;3.17;1.77;;;;;;;8.74;92.26;95996.00;5109162;28;20509;-77
2022/11/13 00:37:38;;;;;;;10.15;3.47;;;;;;;8.71;92.36;95993.84;5108847;28;20220;-77
2022/11/13 00:40:06;;;;;;;1.65;1.45;;;;;;;8.73;92.24;95992.50;5109443;28;20209;-78
2022/11/13 00:42:32;;;;;;;1.83;1.23;;;;;;;8.72;92.67;95995.47;5109232;28;20218;-76
2022/11/13 00:44:59;;;;;;;5.70;1.75;;;;;;;8.73;92.53;95986.28;5108607;28;20258;-78
2022/11/13 00:47:26;;;;;;;3.88;2.22;;;;;;;8.71;92.43;95975.75;5111135;28;20298;-78
2022/11/13 00:49:52;;;;;;;4.18;2.67;;;;;;;8.80;92.48;95989.44;5113220;28;20670;-78
2022/11/13 00:52:21;;;;;;;2.55;1.92;;;;;;;8.80;92.08;95981.34;5112723;28;20206;-78
2022/11/13 00:54:50;;;;;;;4.82;2.78;;;;;;;8.81;92.04;95988.38;5113282;28;20202;-77
2022/11/13 00:57:16;;;;;;;4.32;3.00;;;;;;;8.77;92.24;95996.22;5113110;28;20201;-77
2022/11/13 00:59:43;;;;;;;4.75;2.55;;;;;;;8.83;91.96;95980.78;5111983;28;20209;-79
2022/11/13 01:02:11;;;;;;;4.57;2.40;;;;;;;8.83;91.63;95983.50;5110663;28;20638;-76
2022/11/13 01:04:38;;;;;;;6.32;3.10;;;;;;;8.84;91.66;95987.81;5112414;28;20204;-77
2022/11/13 01:07:05;;;;;;;5.88;3.05;;;;;;;8.84;91.71;95982.41;5112638;28;20233;-78
2022/11/13 01:09:33;;;;;;;4.53;2.42;;;;;;;8.85;91.68;95984.00;5116552;27;20231;-79
2022/11/13 01:12:00;;;;;;;3.63;2.35;;;;;;;8.82;91.85;95989.97;5108377;27;20268;-77
2022/11/13 01:14:26;;;;;;;3.15;2.28;;;;;;;8.79;91.81;95980.53;5096003;28;20194;-78
2022/11/13 01:16:53;;;;;;;3.78;2.50;;;;;;;8.75;91.91;95984.88;5091780;28;20218;-77
2022/11/13 01:19:20;;;;;;;2.25;1.58;;;;;;;8.78;91.79;95983.50;5091782;28;20217;-78
2022/11/13 01:21:47;;;;;;;4.65;2.22;;;;;;;8.82;91.65;95987.28;5092087;28;20599;-77
2022/11/13 01:24:13;;;;;;;5.78;2.65;;;;;;;8.83;91.85;95980.78;5112416;28;20198;-79
2022/11/13 01:26:41;;;;;;;5.63;2.72;;;;;;;8.80;91.83;95986.75;5125465;27;20684;-77
2022/11/13 01:29:11;;;;;;;2.58;2.05;;;;;;;8.79;92.04;95985.13;5091887;27;20210;-79
2022/11/13 01:31:38;;;;;;;3.42;2.35;;;;;;;8.80;91.72;95984.03;5104554;28;20575;-78
2022/11/13 01:34:04;;;;;;;5.80;3.63;;;;;;;8.84;91.65;95971.59;5098906;28;20267;-77
2022/11/13 01:36:31;;;;;;;8.70;2.80;;;;;;;8.84;91.70;95979.69;5112286;28;20208;-79
2022/11/13 01:38:58;;;;;;;5.28;3.20;;;;;;;8.78;91.83;95973.53;5118127;27;20198;-78
2022/11/13 01:41:28;;;;;;;4.82;2.83;;;;;;;8.84;91.94;95971.59;5105639;28;20220;-77
2022/11/13 01:43:57;;;;;;;4.95;2.40;;;;;;;8.74;92.01;95971.69;5104646;28;20202;-79
2022/11/13 01:46:30;;;;;;;6.90;3.67;;;;;;;8.70;92.24;95959.81;5091302;28;20229;-78
2022/11/13 01:49:03;;;;;;;5.15;3.55;;;;;;;8.70;92.38;95970.63;5091936;28;20286;-79
2022/11/13 01:51:34;;;;;;;4.80;3.03;;;;;;;8.67;92.69;95960.38;5108609;28;20714;-77
2022/11/13 01:54:02;;;;;;;6.95;3.55;;;;;;;8.65;92.43;95962.56;5111910;27;20293;-79
2022/11/13 01:56:30;;;;;;;6.00;3.22;;;;;;;8.72;92.21;95961.16;5112230;28;20209;-78
2022/11/13 01:59:05;;;;;;;4.88;3.10;;;;;;;8.77;92.09;95954.88;5110757;28;20278;-78
2022/11/13 02:01:31;;;;;;;9.68;3.67;;;;;;;8.75;91.91;95955.16;5111340;28;20686;-77
2022/11/13 02:03:58;;;;;;;7.40;4.15;;;;;;;8.77;91.84;95954.88;5112077;28;20618;-77
2022/11/13 02:06:27;;;;;;;3.60;2.55;;;;;;;8.79;91.74;95961.63;5119342;27;20260;-79
2022/11/13 02:08:54;;;;;;;4.07;2.97;;;;;;;8.72;91.95;95969.25;5090942;28;20241;-77
2022/11/13 02:11:22;;;;;;;3.92;2.03;;;;;;;8.75;91.85;95968.66;5098540;28;20254;-78
2022/11/13 02:13:50;;;;;;;3.75;2.50;;;;;;;8.74;91.88;95966.28;5111787;28;20854;-78
2022/11/13 02:16:22;;;;;;;5.28;3.08;;;;;;;8.73;91.83;95960.06;5111512;28;20262;-78
2022/11/13 02:18:49;;;;;;;1.35;1.25;;;;;;;8.72;91.93;95966.56;5111216;28;20198;-76
2022/11/13 02:21:27;;;;;;;4.70;2.60;;;;;;;8.73;92.11;95956.56;5119668;27;20201;-79
2022/11/13 02:24:02;;;;;;;6.07;2.92;;;;;;;8.66;92.23;95967.69;5113280;27;20721;-79
2022/11/13 02:26:31;;;;;;;1.98;1.42;;;;;;;8.68;92.12;95959.28;5111688;27;20217;-76
2022/11/13 02:28:58;;;;;;;8.02;3.72;;;;;;;8.70;92.27;95959.81;5119769;27;20259;-77
2022/11/13 02:31:25;;;;;;;5.70;2.85;;;;;;;8.72;92.21;95954.94;5102942;28;20244;-76
2022/11/13 02:33:51;;;;;;;5.50;2.42;;;;;;;8.80;92.19;95957.03;5110623;28;20202;-77
2022/11/13 02:36:22;;;;;;;3.60;2.80;;;;;;;8.78;91.72;95956.50;5110628;28;20248;-78
2022/11/13 02:38:52;;;;;;;4.90;3.20;;;;;;;8.76;92.02;95958.66;5111645;27;20267;-78
2022/11/13 02:41:18;;;;;;;8.35;3.70;;;;;;;8.76;91.90;95947.88;5111476;28;20198;-78
2022/11/13 02:43:46;;;;;;;5.78;2.28;;;;;;;8.80;91.79;95954.31;5111343;28;20205;-79
2022/11/13 02:46:13;;;;;;;5.65;3.03;;;;;;;8.79;92.05;95953.50;5111301;27;20233;-77
2022/11/13 02:48:40;;;;;;;4.30;2.55;;;;;;;8.83;91.52;95959.16;5116444;27;20214;-77
2022/11/13 02:51:07;;;;;;;3.75;2.60;;;;;;;8.85;91.52;95951.59;5104287;28;20201;-76
2022/11/13 02:53:34;;;;;;;7.82;2.53;;;;;;;8.91;91.55;95953.13;5110169;28;20214;-77
2022/11/13 02:56:00;;;;;;;3.60;2.20;;;;;;;8.91;91.25;95961.25;5111090;28;20255;-77
2022/11/13 02:58:27;;;;;;;6.32;3.53;;;;;;;8.92;91.72;95960.16;5118491;27;20599;-78
2022/11/13 03:00:55;;;;;;;6.80;3.65;;;;;;;8.89;91.39;95960.72;5101700;27;20290;-78
2022/11/13 03:03:22;;;;;;;6.70;3.63;;;;;;;8.83;91.80;95959.97;5098312;28;20197;-79
2022/11/13 03:05:49;;;;;;;8.25;3.38;;;;;;;8.92;91.55;95960.16;5110637;28;20702;-77
2022/11/13 03:08:16;;;;;;;4.80;3.00;;;;;;;8.96;91.32;95969.31;5118865;27;20203;-76
2022/11/13 03:10:43;;;;;;;15.07;3.20;;;;;;;9.00;91.08;95967.66;5100717;27;20198;-78
2022/11/13 03:13:09;;;;;;;6.85;3.50;;;;;;;9.02;90.64;95962.75;5089983;28;20613;-77
2022/11/13 03:15:36;;;;;;;8.20;4.00;;;;;;;9.04;90.80;95960.59;5105703;28;20243;-77
2022/11/13 03:18:06;;;;;;;6.07;3.58;;;;;;;9.04;90.56;95952.47;5110286;28;20727;-78
2022/11/13 03:20:33;;;;;;;4.95;2.63;;;;;;;9.12;89.91;95962.69;5112461;27;20546;-78
2022/11/13 03:23:00;;;;;;;3.85;2.28;;;;;;;9.18;89.59;95963.44;5130283;27;20193;-76
2022/11/13 03:25:26;;;;;;;6.13;3.38;;;;;;;9.19;89.65;95957.75;5098252;27;20210;-79
2022/11/13 03:27:53;;;;;;;4.53;2.92;;;;;;;9.18;89.68;95966.94;5089891;28;20650;-78
2022/11/13 03:30:20;;;;;;;7.53;3.78;;;;;;;9.24;89.25;95963.09;5106002;28;20214;-77
2022/11/13 03:32:47;;;;;;;10.23;4.88;;;;;;;9.21;89.04;95966.38;5119813;27;20228;-78
2022/11/13 03:35:15;;;;;;;6.65;3.55;;;;;;;9.27;88.76;95967.94;5113439;27;20255;-78
2022/11/13 03:37:42;;;;;;;5.70;3.13;;;;;;;9.32;88.74;95972.47;5110377;28;20213;-78
2022/11/13 03:40:09;;;;;;;6.93;3.47;;;;;;;9.30;88.80;95973.84;5109694;28;20255;-78
2022/11/13 03:42:36;;;;;;;5.75;3.65;;;;;;;9.27;88.91;95970.66;5110395;28;20198;-76
2022/11/13 03:45:03;;;;;;;9.23;4.75;;;;;;;9.27;88.92;95976.06;5110082;28;20198;-76
2022/11/13 03:47:30;;;;;;;6.10;2.53;;;;;;;9.29;88.85;95969.56;5109689;28;20294;-77
2022/11/13 03:49:56;;;;;;;6.63;2.42;;;;;;;9.31;88.98;95972.75;5109262;28;20667;-78
2022/11/13 03:52:24;;;;;;;6.05;3.05;;;;;;;9.32;88.88;95966.25;5109739;28;20500;-79
2022/11/13 03:54:51;;;;;;;5.38;3.05;;;;;;;9.33;88.92;95967.88;5109671;28;20254;-77
2022/11/13 03:57:19;;;;;;;3.95;2.33;;;;;;;9.31;88.54;95970.84;5109751;28;20201;-76
2022/11/13 03:59:45;;;;;;;5.75;3.28;;;;;;;9.26;89.00;95970.94;5109731;28;20220;-78
2022/11/13 04:02:12;;;;;;;5.30;3.55;;;;;;;9.25;89.34;95962.00;5121842;27;20205;-77
2022/11/13 04:04:39;;;;;;;6.97;3.63;;;;;;;9.21;89.44;95970.97;5092961;27;20210;-77
2022/11/13 04:07:05;;;;;;;5.43;2.70;;;;;;;9.29;89.26;95972.25;5089222;28;20234;-77
2022/11/13 04:09:33;;;;;;;4.78;2.60;;;;;;;9.25;89.20;95967.41;5089567;28;20231;-77
2022/11/13 04:12:00;;;;;;;3.45;2.17;;;;;;;9.24;89.26;95976.63;5089186;28;20718;-80
2022/11/13 04:14:27;;;;;;;5.07;2.58;;;;;;;9.23;89.58;95969.59;5108575;28;20482;-78
2022/11/13 04:16:54;;;;;;;9.52;4.75;;;;;;;9.19;89.87;95967.75;5109424;28;20209;-76
2022/11/13 04:19:20;;;;;;;4.32;3.35;;;;;;;9.22;90.03;95957.16;5108824;28;20205;-77
2022/11/13 04:21:47;;;;;;;4.93;3.20;;;;;;;9.22;89.92;95957.16;5109551;28;20250;-78
2022/11/13 04:24:14;;;;;;;5.47;3.15;;;;;;;9.14;90.39;95960.50;5114027;28;20201;-79
2022/11/13 04:26:42;;;;;;;5.50;3.30;;;;;;;9.15;90.55;95962.13;5113223;28;20240;-79
2022/11/13 04:29:09;;;;;;;5.78;3.92;;;;;;;9.14;90.73;95965.91;5113526;28;20205;-78
2022/11/13 04:31:35;;;;;;;4.75;2.92;;;;;;;9.13;90.90;95963.50;5113050;28;20286;-78
2022/11/13 04:34:02;;;;;;;8.50;4.00;;;;;;;9.12;90.86;95961.88;5113819;28;20197;-78
2022/11/13 04:36:29;;;;;;;6.68;4.05;;;;;;;9.11;90.97;95961.06;5113397;28;20571;-78
2022/11/13 04:38:56;;;;;;;7.22;3.63;;;;;;;9.14;90.90;95963.22;5113761;28;20213;-78
2022/11/13 04:44:08;;;;;;;7.18;4.03;;;;;;;9.05;91.28;95956.78;5113705;28;20266;-78
2022/11/13 04:46:35;;;;;;;7.10;3.55;;;;;;;9.06;90.90;95957.59;5113352;28;20328;-78
2022/11/13 04:49:01;;;;;;;6.25;3.33;;;;;;;9.10;90.44;95956.75;5113436;28;20222;-78
2022/11/13 04:51:28;;;;;;;7.13;4.43;;;;;;;9.08;90.24;95955.44;5113111;28;20231;-80
2022/11/13 04:53:55;;;;;;;7.32;2.97;;;;;;;9.08;90.68;95956.22;5113364;28;20223;-78
2022/11/13 04:56:22;;;;;;;7.20;4.28;;;;;;;9.10;90.86;95964.06;5112469;28;20263;-79
2022/11/13 04:58:49;;;;;;;9.57;4.72;;;;;;;9.03;91.38;95964.38;5113530;28;20201;-78
2022/11/13 05:01:17;;;;;;;7.35;3.60;;;;;;;8.98;91.69;95956.34;5113079;27;20213;-78
2022/11/13 05:03:43;;;;;;;9.52;4.95;;;;;;;8.97;91.94;95962.81;5113292;28;20664;-79
2022/11/13 05:06:12;;;;;;;12.95;5.43;;;;;;;9.01;91.79;95961.19;5113057;28;20296;-78
2022/11/13 05:08:39;;;;;;;11.95;5.25;;;;;;;8.98;91.90;95961.75;5112513;28;20676;-77
2022/11/13 05:11:06;;;;;;;4.40;3.25;;;;;;;8.97;91.89;95960.13;5113677;27;20209;-77
2022/11/13 05:13:34;;;;;;;8.27;4.28;;;;;;;8.98;92.04;95966.34;5113519;27;20213;-78
2022/11/13 05:16:02;;;;;;;10.75;5.65;;;;;;;8.95;92.14;95966.91;5126908;27;20209;-78
2022/11/13 05:18:31;;;;;;;9.32;5.80;;;;;;;8.96;92.03;95958.50;5112617;28;20205;-77
2022/11/13 05:20:58;;;;;;;9.75;5.45;;;;;;;8.94;92.19;95970.69;5113332;28;20210;-78
2022/11/13 05:23:25;;;;;;;13.15;5.63;;;;;;;8.96;92.00;95963.91;5100053;28;20206;-77
2022/11/13 05:25:51;;;;;;;10.52;5.47;;;;;;;9.02;91.92;95964.69;5111768;28;20608;-79
2022/11/13 05:28:18;;;;;;;11.18;5.57;;;;;;;8.97;91.93;95965.53;5112069;28;20226;-78
2022/11/13 05:30:45;;;;;;;12.52;5.75;;;;;;;8.98;92.03;95972.56;5112923;28;20617;-77
2022/11/13 05:33:12;;;;;;;13.93;5.55;;;;;;;9.02;91.81;95967.38;5112088;28;20233;-78
2022/11/13 05:35:40;;;;;;;11.65;6.20;;;;;;;8.98;91.99;95966.34;5112425;28;20259;-79
2022/11/13 05:38:07;;;;;;;13.00;6.50;;;;;;;8.99;92.14;95968.75;5112458;28;20282;-78
2022/11/13 05:40:34;;;;;;;13.50;6.55;;;;;;;8.98;91.70;95975.25;5112499;28;20262;-78
2022/11/13 05:43:00;;;;;;;8.75;4.47;;;;;;;9.01;91.55;95977.41;5112554;28;20198;-78
2022/11/13 05:45:27;;;;;;;9.85;5.68;;;;;;;9.00;91.45;95969.56;5120018;27;20198;-77
2022/11/13 05:47:54;;;;;;;12.38;5.80;;;;;;;9.03;91.23;95980.59;5104778;28;20242;-78
2022/11/13 05:50:21;;;;;;;10.70;5.95;;;;;;;9.05;90.68;95983.81;5112619;28;20250;-78
2022/11/13 05:52:49;;;;;;;9.38;5.15;;;;;;;9.10;90.14;95981.09;5125082;27;20205;-79
2022/11/13 05:55:16;;;;;;;9.00;5.05;;;;;;;9.11;89.54;95996.22;5099929;28;20660;-78
2022/11/13 05:57:43;;;;;;;7.90;5.05;;;;;;;9.10;89.08;95989.19;5112051;28;20656;-78
2022/11/13 06:00:10;;;;;;;8.80;4.57;;;;;;;9.13;89.13;95991.34;5111887;28;20206;-78
2022/11/13 06:02:37;;;;;;;8.65;4.40;;;;;;;9.17;88.89;95984.25;5124849;27;20668;-77
2022/11/13 06:05:05;;;;;;;10.32;5.65;;;;;;;9.18;88.57;95993.16;5091786;28;20745;-79
2022/11/13 06:07:31;;;;;;;9.90;4.93;;;;;;;9.25;88.17;95999.88;5106342;28;20626;-78
2022/11/13 06:10:00;;;;;;;11.43;4.95;;;;;;;9.25;88.08;95997.16;5120013;27;20197;-79
2022/11/13 06:12:26;;;;;;;13.57;4.95;;;;;;;9.34;87.44;96001.94;5102510;27;20213;-78
2022/11/13 06:14:53;;;;;;;8.63;4.53;;;;;;;9.30;87.07;96000.88;5091545;28;20206;-77
2022/11/13 06:17:20;;;;;;;10.57;5.45;;;;;;;9.34;86.94;96002.75;5093280;28;20257;-78
2022/11/13 06:19:47;;;;;;;7.32;4.15;;;;;;;9.37;86.75;96001.38;5112110;28;20212;-79
2022/11/13 06:22:16;;;;;;;8.07;4.20;;;;;;;9.32;86.88;95988.69;5110176;28;20284;-76
2022/11/13 06:24:43;;;;;;;10.60;5.90;;;;;;;9.35;86.84;95992.75;5091341;28;20699;-77
2022/11/13 06:27:11;;;;;;;12.65;4.65;;;;;;;9.31;86.76;95992.50;5093904;28;20257;-78
2022/11/13 06:29:38;;;;;;;12.23;5.32;;;;;;;9.38;86.74;96003.00;5121192;27;20200;-78
2022/11/13 06:32:05;;;;;;;10.80;5.18;;;;;;;9.37;86.54;95998.66;5101569;27;20633;-79
2022/11/13 06:34:34;;;;;;;6.97;3.85;;;;;;;9.35;86.56;95995.44;5121503;27;20193;-78
2022/11/13 06:37:01;;;;;;;9.75;5.05;;;;;;;9.34;86.63;96007.34;5097387;27;20259;-79
2022/11/13 06:39:28;;;;;;;9.73;4.82;;;;;;;9.35;86.50;96000.84;5090819;28;20202;-77
2022/11/13 06:41:57;;;;;;;9.82;4.75;;;;;;;9.37;86.43;96004.09;5090564;28;20213;-77
2022/11/13 06:44:29;;;;;;;10.30;4.03;;;;;;;9.32;86.55;96004.13;5089758;28;20446;-79
2022/11/13 06:46:56;;;;;;;9.25;5.00;;;;;;;9.36;86.29;95994.34;5113734;27;20258;-78
2022/11/13 06:49:26;;;;;;;8.48;4.68;;;;;;;9.46;85.97;95999.66;5105643;27;20272;-77
2022/11/13 06:51:52;;;;;;;6.25;3.97;;;;;;;9.48;85.50;95997.47;5097673;28;20626;-79
2022/11/13 06:54:19;;;;;;;9.07;5.05;;;;;;;9.49;85.73;95988.25;5110617;28;20267;-78
2022/11/13 06:56:50;;;;;;;12.88;5.55;;;;;;;9.42;85.88;95998.63;5111301;28;20217;-78
2022/11/13 06:59:16;;;;;;;8.18;4.43;;;;;;;9.49;85.76;95999.09;5111043;28;20205;-80
2022/11/13 07:01:44;;;;;;;11.02;5.22;;;;;;;9.53;85.52;95986.59;5111231;28;20206;-77
2022/11/13 07:04:12;;;;;;;6.68;4.45;;;;;;;9.60;85.02;95987.06;5111111;28;20631;-75
2022/11/13 07:06:39;;;;;;;18.27;8.80;;;;;;;9.57;85.30;95990.31;5110975;28;20208;-78
2022/11/13 07:09:06;;;;;;;10.85;4.70;;;;;;;9.53;85.24;95994.72;5123447;27;20254;-77
2022/11/13 07:11:32;;;;;;;11.38;5.90;;;;;;;9.63;85.14;96000.00;5098976;28;20660;-78
2022/11/13 07:13:59;;;;;;;12.43;5.07;;;;;;;9.60;85.12;96008.69;5111890;28;20209;-77
2022/11/13 07:16:26;;;;;;;7.28;3.80;;;;;;;9.58;85.00;95997.34;5111516;28;20613;-79
2022/11/13 07:18:55;;;;;;;11.13;4.43;;;;;;;9.63;84.75;95997.31;5111020;28;20721;-79
2022/11/13 07:21:22;;;;;;;9.73;4.82;;;;;;;9.57;85.13;96010.06;5112378;28;20202;-77
2022/11/13 07:23:50;;;;;;;10.73;5.65;;;;;;;9.46;85.39;96005.88;5095541;28;20727;-78
2022/11/13 07:26:29;;;;;;;12.57;6.55;;;;;;;9.55;85.23;96004.16;5109845;28;20657;-78
2022/11/13 07:28:55;;;;;;;12.68;6.35;;;;;;;9.63;84.99;96006.22;5109893;28;20582;-77
2022/11/13 07:31:22;;;;;;;11.32;6.05;;;;;;;9.58;84.78;96005.47;5109630;28;20712;-77
2022/11/13 07:33:50;;;;;;;6.07;4.20;;;;;;;9.68;84.80;96002.69;5114299;27;20680;-77
2022/11/13 07:36:18;;;;;;;14.10;6.38;;;;;;;9.76;84.31;96010.16;5107515;27;20573;-75
2022/11/13 07:38:45;;;;;;;14.25;6.10;;;;;;;9.68;84.26;96002.69;5107618;28;20266;-76
2022/11/13 07:41:12;;;;;;;14.02;7.13;;;;;;;9.70;84.49;96005.09;5109382;28;20202;-77
2022/11/13 07:43:39;;;;;;;8.65;4.80;;;;;;;9.71;84.36;96002.06;5108728;28;20216;-76
2022/11/13 07:46:06;;;;;;;9.35;5.28;;;;;;;9.69;84.50;96015.13;5108754;28;20649;-75
2022/11/13 07:48:33;;;;;;;16.88;6.93;;;;;;;9.81;84.30;96010.09;5109462;28;20279;-77
2022/11/13 07:51:02;;;;;;;18.92;7.78;;;;;;;9.89;83.85;96012.16;5109840;28;20262;-76
2022/11/13 07:53:37;;;;;;;15.05;7.32;;;;;;;9.98;83.41;96005.00;5116909;27;20202;-77
2022/11/13 07:56:05;;;;;;;16.48;7.53;;;;;;;9.96;83.18;96004.50;5089546;28;20227;-80
2022/11/13 07:58:32;;;;;;;13.27;5.90;;;;;;;9.96;83.32;96007.22;5109110;28;20329;-77
2022/11/13 08:01:04;;;;;;;15.88;6.35;;;;;;;9.99;83.29;96003.91;5123544;27;20253;-74
2022/11/13 08:03:31;;;;;;;11.65;5.88;;;;;;;9.99;83.08;96009.31;5109204;28;20254;-75
2022/11/13 08:06:02;;;;;;;13.90;7.30;;;;;;;10.06;82.45;96008.97;5109572;28;20202;-75
2022/11/13 08:08:28;;;;;;;11.00;4.95;;;;;;;9.99;82.54;96001.19;5109012;28;20268;-76
2022/11/13 08:10:57;;;;;;;5.10;3.17;;;;;;;9.98;82.32;96013.13;5109736;28;20278;-73
2022/11/13 08:13:26;;;;;;;9.63;4.35;;;;;;;9.98;82.32;96010.41;5110224;28;20254;-77
2022/11/13 08:15:55;;;;;;;10.85;5.88;;;;;;;10.10;81.95;96004.59;5108936;28;20656;-76
2022/11/13 08:18:24;;;;;;;13.57;6.47;;;;;;;10.17;81.48;95998.81;5108856;28;20549;-76
2022/11/13 08:20:51;;;;;;;13.18;6.40;;;;;;;10.14;80.99;96010.22;5118066;28;20210;-74
2022/11/13 08:23:20;;;;;;;7.60;4.43;;;;;;;10.04;81.24;96000.34;5100529;28;20725;-76
2022/11/13 08:25:46;;;;;;;8.35;4.35;;;;;;;10.07;81.28;95996.25;5117476;28;20738;-75
2022/11/13 08:28:17;;;;;;;10.35;5.03;;;;;;;10.12;81.04;96001.59;5088063;28;20230;-75
2022/11/13 08:30:45;;;;;;;11.20;6.10;;;;;;;10.27;80.66;96004.13;5107394;28;20210;-74
2022/11/13 08:33:15;;;;;;;9.25;5.50;;;;;;;10.25;81.06;95998.22;5108623;28;20273;-73
2022/11/13 08:35:41;;;;;;;13.32;6.55;;;;;;;10.25;80.79;96001.69;5108327;28;20214;-78
2022/11/13 08:38:09;;;;;;;13.45;6.03;;;;;;;10.20;80.82;96000.97;5108245;28;20227;-77
2022/11/13 08:40:36;;;;;;;11.32;6.75;;;;;;;10.24;80.61;96015.56;5106111;28;20201;-75
2022/11/13 08:43:04;;;;;;;9.77;5.30;;;;;;;10.08;80.64;96006.00;5107163;28;20190;-76
2022/11/13 08:45:34;;;;;;;12.90;5.93;;;;;;;10.15;80.73;96015.34;5108690;28;20698;-75
2022/11/13 08:48:01;;;;;;;12.80;7.05;;;;;;;10.14;80.97;96010.22;5120698;28;20224;-77
2022/11/13 08:50:28;;;;;;;14.98;5.88;;;;;;;10.19;80.41;96004.78;5105707;28;20292;-79
2022/11/13 08:52:56;;;;;;;12.15;6.75;;;;;;;10.17;80.44;96010.47;5116389;27;20204;-78
2022/11/13 08:55:23;;;;;;;13.88;6.95;;;;;;;10.33;80.08;96021.94;5121801;27;20202;-76
2022/11/13 08:57:52;;;;;;;8.52;5.32;;;;;;;10.34;79.97;96010.00;5123109;28;20205;-77
2022/11/13 09:00:21;;;;;;;18.17;9.13;;;;;;;10.25;80.61;96028.00;5118809;28;20211;-77
2022/11/13 09:02:58;;;;;;;16.73;8.23;;;;;;;10.42;79.87;96022.88;5116294;27;20207;-78
2022/11/13 09:05:26;;;;;;;9.40;5.18;;;;;;;10.42;79.65;96025.59;5107211;27;20297;-77
2022/11/13 09:07:59;;;;;;;9.77;5.97;;;;;;;10.41;80.17;96026.69;5112166;27;20228;-77
2022/11/13 09:10:34;;;;;;;12.80;7.38;;;;;;;10.44;79.84;96015.28;5134043;27;20296;-78
2022/11/13 09:13:13;;;;;;;17.33;7.07;;;;;;;10.17;80.38;96024.00;5133967;27;20211;-79
2022/11/13 09:15:47;;;;;;;17.23;8.25;;;;;;;10.33;80.54;96013.81;5113195;27;20729;-79
2022/11/13 09:18:21;;;;;;;14.32;8.05;;;;;;;10.53;79.87;96018.94;5110418;28;20208;-78
2022/11/13 09:20:51;;;;;;;13.90;8.00;;;;;;;10.54;79.08;96023.25;5125959;27;20204;-80
2022/11/13 09:23:17;;;;;;;13.25;6.78;;;;;;;10.55;79.38;96016.72;5112857;28;20216;-81
2022/11/13 09:25:44;;;;;;;11.60;5.53;;;;;;;10.34;79.67;96010.00;5116161;27;20253;-81
2022/11/13 09:28:11;;;;;;;10.85;6.53;;;;;;;10.38;79.84;96010.22;5120965;27;20278;-79
2022/11/13 09:30:39;;;;;;;11.65;6.78;;;;;;;10.60;79.09;96008.53;5118474;27;20291;-80
2022/11/13 09:33:06;;;;;;;14.45;7.75;;;;;;;10.71;78.22;96005.69;5133281;27;20228;-76
2022/11/13 09:35:34;;;;;;;13.55;7.80;;;;;;;10.88;77.81;96008.66;5126863;27;20659;-77
2022/11/13 09:38:02;;;;;;;16.45;7.45;;;;;;;10.86;77.76;96010.88;5124759;27;20591;-77
2022/11/13 09:40:33;;;;;;;11.48;5.85;;;;;;;10.97;77.58;96001.47;5119287;27;20212;-79
2022/11/13 09:43:02;;;;;;;9.75;4.85;;;;;;;10.86;78.04;95991.88;5119660;27;20550;-79
2022/11/13 09:45:32;;;;;;;14.23;8.63;;;;;;;11.16;77.17;95999.53;5106160;27;20201;-79
2022/11/13 09:48:09;;;;;;;9.30;5.78;;;;;;;11.29;76.05;95982.47;5130090;27;20740;-82
2022/11/13 09:50:37;;;;;;;10.52;5.68;;;;;;;11.35;75.75;95981.25;5110429;27;20426;-79
2022/11/13 09:53:04;;;;;;;19.48;8.52;;;;;;;11.29;75.69;95982.47;5113185;27;20197;-80
2022/11/13 09:55:36;;;;;;;14.40;8.98;;;;;;;11.70;75.12;95976.28;5121401;27;20193;-78
2022/11/13 09:58:12;;;;;;;10.98;5.68;;;;;;;11.80;73.62;95969.88;5115891;27;20193;-82
2022/11/13 10:00:39;;;;;;;13.30;7.63;;;;;;;12.01;73.34;95966.47;5106502;27;20240;-77
2022/11/13 10:03:23;;;;;;;16.83;8.38;;;;;;;11.98;73.10;95972.50;5124962;27;20205;-78
2022/11/13 10:06:00;;;;;;;11.68;7.18;;;;;;;11.63;73.92;95970.44;5121072;27;20209;-78
2022/11/13 10:08:30;;;;;;;14.80;7.28;;;;;;;11.56;74.42;95975.47;5121772;27;20232;-77
2022/11/13 10:11:07;;;;;;;10.02;5.32;;;;;;;11.37;74.58;95978.25;5118057;27;20190;-78
2022/11/13 10:13:47;;;;;;;8.25;5.63;;;;;;;11.39;74.50;95971.44;5111072;27;20192;-78
2022/11/13 10:16:26;;;;;;;12.13;7.40;;;;;;;11.29;74.97;95971.63;5110966;28;20196;-78
2022/11/13 10:18:59;;;;;;;12.35;6.65;;;;;;;11.14;75.67;95977.31;5112565;28;20198;-80
2022/11/13 10:21:33;;;;;;;11.93;6.85;;;;;;;11.42;74.76;95961.09;5120718;27;20194;-77
2022/11/13 10:24:04;;;;;;;19.48;8.15;;;;;;;11.66;74.01;95964.41;5108281;27;20188;-81
2022/11/13 10:26:34;;;;;;;13.07;7.13;;;;;;;11.87;73.37;95959.44;5110569;28;20186;-78
2022/11/13 10:29:05;;;;;;;17.67;7.00;;;;;;;11.80;72.88;95957.09;5110754;28;20217;-79
2022/11/13 10:31:41;;;;;;;11.05;6.18;;;;;;;11.60;73.46;95960.22;5110723;28;20728;-77
2022/11/13 10:34:09;;;;;;;11.35;6.72;;;;;;;11.47;73.28;95966.44;5123154;27;20215;-80
2022/11/13 10:36:49;;;;;;;13.80;7.47;;;;;;;11.67;73.29;95960.59;5127351;27;20197;-80
2022/11/13 10:39:15;;;;;;;11.65;5.95;;;;;;;11.44;73.50;95958.88;5121898;27;20198;-78
2022/11/13 10:41:47;;;;;;;12.27;5.68;;;;;;;11.41;73.98;95954.84;5115191;27;20697;-78
2022/11/13 10:44:26;;;;;;;8.73;5.05;;;;;;;11.44;73.64;95956.19;5119997;27;20194;-78
2022/11/13 10:47:04;;;;;;;12.30;7.03;;;;;;;11.39;74.07;95949.72;5104863;27;20586;-78
2022/11/13 10:49:31;;;;;;;11.60;6.03;;;;;;;11.57;73.32;95939.91;5116581;27;20216;-80
2022/11/13 10:52:01;;;;;;;13.35;7.07;;;;;;;11.56;73.22;95937.47;5131087;27;20205;-80
2022/11/13 10:54:30;;;;;;;12.68;6.55;;;;;;;11.62;73.16;95941.69;5117263;27;20200;-78
2022/11/13 10:56:58;;;;;;;8.95;5.68;;;;;;;11.62;72.99;95947.13;5131293;27;20600;-81
2022/11/13 10:59:26;;;;;;;11.98;6.80;;;;;;;11.42;73.02;95942.09;5112265;27;20210;-80
2022/11/13 11:01:53;;;;;;;12.63;7.60;;;;;;;11.79;72.73;95924.81;5116279;27;20196;-78
2022/11/13 11:04:26;;;;;;;15.93;8.13;;;;;;;11.81;71.71;95928.06;5115242;27;20201;-80
2022/11/13 11:06:54;;;;;;;11.20;6.28;;;;;;;11.29;72.45;95938.25;5121009;27;20644;-80
2022/11/13 11:09:26;;;;;;;11.88;5.40;;;;;;;11.33;72.23;95937.38;5117631;27;20224;-82
2022/11/13 11:12:18;;;;;;;13.73;8.05;;;;;;;11.20;72.88;95937.34;5106695;27;20197;-79
2022/11/13 11:14:59;;;;;;;11.20;6.18;;;;;;;11.35;73.04;95929.72;5106244;27;20220;-79
2022/11/13 11:17:32;;;;;;;12.45;6.40;;;;;;;11.40;71.87;95929.63;5117586;27;20222;-79
2022/11/13 11:20:03;;;;;;;15.27;7.00;;;;;;;11.31;72.39;95927.94;5119388;27;20262;-80
2022/11/13 11:22:34;;;;;;;12.57;5.43;;;;;;;11.42;72.33;95931.25;5128243;27;20199;-79
2022/11/13 11:25:06;;;;;;;16.98;8.73;;;;;;;11.59;72.14;95913.25;5118481;27;20210;-79
2022/11/13 11:27:36;;;;;;;12.68;6.82;;;;;;;11.51;72.22;95926.72;5124696;27;20196;-80
2022/11/13 11:30:06;;;;;;;12.55;7.03;;;;;;;11.36;72.96;95923.19;5109687;28;20638;-78
2022/11/13 11:32:38;;;;;;;20.20;10.30;;;;;;;11.50;72.50;95916.97;5096530;28;20230;-77
2022/11/13 11:35:12;;;;;;;14.05;8.15;;;;;;;11.54;72.83;95915.25;5123513;27;20717;-78
2022/11/13 11:37:47;;;;;;;20.77;7.25;;;;;;;11.39;73.04;95917.16;5119361;27;20831;-77
2022/11/13 11:40:22;;;;;;;13.90;7.20;;;;;;;11.42;73.38;95921.19;5112528;27;20193;-79
2022/11/13 11:42:59;;;;;;;14.95;7.88;;;;;;;11.51;72.95;95907.72;5121772;27;20185;-76
2022/11/13 11:45:29;;;;;;;12.40;7.55;;;;;;;11.44;73.15;95912.75;5116801;27;20212;-80